createdAt,value
2019-05-19T00:00:51.845Z,0.50
2019-05-19T00:03:20.564Z,0.57
2019-05-19T00:05:48.202Z,0.73
2019-05-19T00:08:16.941Z,0.80
2019-05-19T00:10:44.303Z,0.80
2019-05-19T00:13:11.756Z,0.70
2019-05-19T00:15:39.337Z,0.60
2019-05-19T00:18:06.888Z,0.73
2019-05-19T00:20:34.198Z,0.90
2019-05-19T00:23:02.035Z,0.70
2019-05-19T00:25:29.632Z,0.73
2019-05-19T00:27:56.970Z,0.60
2019-05-19T00:30:24.760Z,0.80
2019-05-19T00:32:52.034Z,0.60
2019-05-19T00:35:19.349Z,0.77
2019-05-19T00:37:46.789Z,0.80
2019-05-19T00:40:14.126Z,0.67
2019-05-19T00:42:41.445Z,0.80
2019-05-19T00:45:09.869Z,0.83
2019-05-19T00:47:37.593Z,0.73
2019-05-19T00:50:07.729Z,0.80
2019-05-19T00:52:35.281Z,0.90
2019-05-19T00:55:02.866Z,0.80
2019-05-19T00:57:30.182Z,0.70
2019-05-19T00:59:57.520Z,0.80
2019-05-19T01:02:25.230Z,0.80
2019-05-19T01:04:52.778Z,0.70
2019-05-19T01:07:20.324Z,0.63
2019-05-19T01:09:47.646Z,0.63
2019-05-19T01:12:15.264Z,1.33
2019-05-19T01:14:42.730Z,0.70
2019-05-19T01:17:10.071Z,0.70
2019-05-19T01:19:38.217Z,0.80
2019-05-19T01:22:05.661Z,0.83
2019-05-19T01:24:33.007Z,0.87
2019-05-19T01:27:00.577Z,0.90
2019-05-19T01:29:27.954Z,0.73
2019-05-19T01:31:55.530Z,0.90
2019-05-19T01:34:23.147Z,0.67
2019-05-19T01:36:50.593Z,1.00
2019-05-19T01:39:17.985Z,0.80
2019-05-19T01:41:45.337Z,0.80
2019-05-19T01:44:12.869Z,0.70
2019-05-19T01:46:40.444Z,0.63
2019-05-19T01:49:07.781Z,0.70
2019-05-19T01:51:35.334Z,1.20
2019-05-19T01:54:02.761Z,0.80
2019-05-19T01:56:31.470Z,0.80
2019-05-19T01:58:58.742Z,0.80
2019-05-19T02:01:26.369Z,0.80
2019-05-19T02:03:53.673Z,0.63
2019-05-19T02:06:21.050Z,1.00
2019-05-19T02:08:48.533Z,0.60
2019-05-19T02:11:16.391Z,0.80
2019-05-19T02:13:43.854Z,0.60
2019-05-19T02:16:11.189Z,0.57
2019-05-19T02:18:39.026Z,0.60
2019-05-19T02:21:06.678Z,0.77
2019-05-19T02:23:34.220Z,0.83
2019-05-19T02:26:01.831Z,1.00
2019-05-19T02:28:29.341Z,0.80
2019-05-19T02:30:56.687Z,1.10
2019-05-19T02:33:24.240Z,0.83
2019-05-19T02:35:51.770Z,0.80
2019-05-19T02:38:19.345Z,0.70
2019-05-19T02:40:51.319Z,1.03
2019-05-19T02:43:18.689Z,0.90
2019-05-19T02:45:46.170Z,0.67
2019-05-19T02:48:13.694Z,0.93
2019-05-19T02:50:51.621Z,0.73
2019-05-19T02:53:10.185Z,0.70
2019-05-19T02:55:38.109Z,0.70
2019-05-19T02:58:05.829Z,0.70
2019-05-19T03:00:38.033Z,0.57
2019-05-19T03:03:05.997Z,0.50
2019-05-19T03:05:33.478Z,0.70
2019-05-19T03:08:00.962Z,1.00
2019-05-19T03:10:28.506Z,0.70
2019-05-19T03:12:55.873Z,0.70
2019-05-19T03:15:23.402Z,0.60
2019-05-19T03:17:50.744Z,0.73
2019-05-19T03:20:18.094Z,0.63
2019-05-19T03:22:45.658Z,0.80
2019-05-19T03:25:13.227Z,0.80
2019-05-19T03:27:40.728Z,0.70
2019-05-19T03:30:26.441Z,0.80
2019-05-19T03:32:58.126Z,1.13
2019-05-19T03:35:25.586Z,0.67
2019-05-19T03:37:52.929Z,0.80
2019-05-19T03:40:20.284Z,0.77
2019-05-19T03:42:49.559Z,0.97
2019-05-19T03:45:16.895Z,0.67
2019-05-19T03:47:44.330Z,0.90
2019-05-19T03:50:11.815Z,0.70
2019-05-19T03:52:39.369Z,0.77
2019-05-19T03:55:07.026Z,0.73
2019-05-19T03:57:34.384Z,0.80
2019-05-19T04:00:01.768Z,0.70
2019-05-19T04:02:29.428Z,0.83
2019-05-19T04:04:56.882Z,0.80
2019-05-19T04:07:24.372Z,0.93
2019-05-19T04:09:51.716Z,1.00
2019-05-19T04:12:19.088Z,0.80
2019-05-19T04:14:46.404Z,0.73
2019-05-19T04:17:13.863Z,0.90
2019-05-19T04:19:41.384Z,0.70
2019-05-19T04:22:08.894Z,0.80
2019-05-19T04:24:38.901Z,1.20
2019-05-19T04:27:06.275Z,0.90
2019-05-19T04:29:33.742Z,0.90
2019-05-19T04:32:01.257Z,0.83
2019-05-19T04:34:28.820Z,0.67
2019-05-19T04:36:56.377Z,0.73
2019-05-19T04:39:23.806Z,0.73
2019-05-19T04:41:51.221Z,0.77
2019-05-19T04:44:18.612Z,0.63
2019-05-19T04:46:46.186Z,0.93
2019-05-19T04:49:13.638Z,1.00
2019-05-19T04:51:42.118Z,0.70
2019-05-19T04:54:09.478Z,0.87
2019-05-19T04:56:36.807Z,0.80
2019-05-19T04:59:04.655Z,0.87
2019-05-19T05:01:31.988Z,0.70
2019-05-19T05:03:59.549Z,0.80
2019-05-19T05:06:27.330Z,0.90
2019-05-19T05:08:54.653Z,0.50
2019-05-19T05:11:22.103Z,0.70
2019-05-19T05:13:49.467Z,0.60
2019-05-19T05:16:17.020Z,0.90
2019-05-19T05:18:47.600Z,0.73
2019-05-19T05:21:13.717Z,0.73
2019-05-19T05:23:41.167Z,0.80
2019-05-19T05:26:08.686Z,0.90
2019-05-19T05:28:36.141Z,0.90
2019-05-19T05:31:03.458Z,0.67
2019-05-19T05:33:31.037Z,0.70
2019-05-19T05:35:58.354Z,0.80
2019-05-19T05:38:25.816Z,0.70
2019-05-19T05:40:53.128Z,0.80
2019-05-19T05:43:20.584Z,0.63
2019-05-19T05:45:48.165Z,0.70
2019-05-19T05:48:15.753Z,0.80
2019-05-19T05:50:43.080Z,0.70
2019-05-19T05:53:10.640Z,0.90
2019-05-19T05:55:38.498Z,0.80
2019-05-19T05:58:05.836Z,0.80
2019-05-19T06:00:33.255Z,0.93
2019-05-19T06:03:00.582Z,1.03
2019-05-19T06:05:28.543Z,0.90
2019-05-19T06:07:56.158Z,0.80
2019-05-19T06:10:23.661Z,0.80
2019-05-19T06:12:50.973Z,0.60
2019-05-19T06:15:18.403Z,0.90
2019-05-19T06:17:45.709Z,0.70
2019-05-19T06:20:13.212Z,0.67
2019-05-19T06:22:55.268Z,0.80
2019-05-19T06:25:09.926Z,0.70
2019-05-19T06:27:37.156Z,0.40
2019-05-19T06:30:08.522Z,0.77
2019-05-19T06:32:43.015Z,1.03
2019-05-19T06:35:10.780Z,0.80
2019-05-19T06:37:38.776Z,0.80
2019-05-19T06:40:06.248Z,0.70
2019-05-19T06:42:33.559Z,0.70
2019-05-19T06:45:00.877Z,0.60
2019-05-19T06:47:28.280Z,0.80
2019-05-19T06:49:55.816Z,0.70
2019-05-19T06:52:23.260Z,0.70
2019-05-19T06:54:50.901Z,0.80
2019-05-19T06:57:19.338Z,0.80
2019-05-19T06:59:46.637Z,0.57
2019-05-19T07:02:14.169Z,0.90
2019-05-19T07:04:41.630Z,0.80
2019-05-19T07:07:09.081Z,0.70
2019-05-19T07:09:36.698Z,0.70
2019-05-19T07:12:04.016Z,0.90
2019-05-19T07:14:31.375Z,0.70
2019-05-19T07:16:58.716Z,0.70
2019-05-19T07:19:26.405Z,0.70
2019-05-19T07:21:54.573Z,0.80
2019-05-19T07:24:21.961Z,0.80
2019-05-19T07:26:49.323Z,0.80
2019-05-19T07:29:16.879Z,0.90
2019-05-19T07:31:44.205Z,0.63
2019-05-19T07:34:11.554Z,0.73
2019-05-19T07:36:39.601Z,0.70
2019-05-19T07:39:08.041Z,0.70
2019-05-19T07:41:35.623Z,0.67
2019-05-19T07:44:03.346Z,0.60
2019-05-19T07:46:30.703Z,0.57
2019-05-19T07:48:58.177Z,0.73
2019-05-19T07:51:25.528Z,0.77
2019-05-19T07:53:52.972Z,0.70
2019-05-19T07:56:20.377Z,0.47
2019-05-19T07:58:47.982Z,0.63
2019-05-19T08:01:15.293Z,0.73
2019-05-19T08:03:42.641Z,0.60
2019-05-19T08:06:09.974Z,0.70
2019-05-19T08:08:37.560Z,0.63
2019-05-19T08:11:04.790Z,1.07
2019-05-19T08:13:32.326Z,0.70
2019-05-19T08:15:59.850Z,1.00
2019-05-19T08:18:27.302Z,0.80
2019-05-19T08:20:54.683Z,0.70
2019-05-19T08:23:21.982Z,0.70
2019-05-19T08:25:49.267Z,1.07
2019-05-19T08:28:16.549Z,0.80
2019-05-19T08:30:43.766Z,0.70
2019-05-19T08:33:11.281Z,0.80
2019-05-19T08:35:38.821Z,1.13
2019-05-19T08:38:06.524Z,0.83
2019-05-19T08:40:34.224Z,0.90
2019-05-19T08:43:01.539Z,0.70
2019-05-19T08:45:29.245Z,0.80
2019-05-19T08:47:59.210Z,0.70
2019-05-19T08:50:26.549Z,0.60
2019-05-19T08:52:54.083Z,0.83
2019-05-19T08:55:21.402Z,0.70
2019-05-19T08:57:49.325Z,0.60
2019-05-19T09:00:16.935Z,0.57
2019-05-19T09:02:44.360Z,0.80
2019-05-19T09:05:11.819Z,0.80
2019-05-19T09:07:39.619Z,0.73
2019-05-19T09:10:07.302Z,0.87
2019-05-19T09:12:34.772Z,0.90
2019-05-19T09:15:02.934Z,0.80
2019-05-19T09:17:30.752Z,0.73
2019-05-19T09:19:58.248Z,0.80
2019-05-19T09:22:25.688Z,0.87
2019-05-19T09:24:53.017Z,0.60
2019-05-19T09:27:20.437Z,0.80
2019-05-19T09:29:47.761Z,0.73
2019-05-19T09:32:15.215Z,0.90
2019-05-19T09:34:42.574Z,0.80
2019-05-19T09:37:10.124Z,0.90
2019-05-19T09:39:38.293Z,0.77
2019-05-19T09:42:05.751Z,0.67
2019-05-19T09:44:33.089Z,0.83
2019-05-19T09:47:00.547Z,0.60
2019-05-19T09:49:34.481Z,0.80
2019-05-19T09:52:02.370Z,0.90
2019-05-19T09:54:43.778Z,0.90
2019-05-19T09:56:58.801Z,1.23
2019-05-19T09:59:26.677Z,0.80
2019-05-19T10:01:54.139Z,0.70
2019-05-19T10:04:21.656Z,0.70
2019-05-19T10:06:49.450Z,0.93
2019-05-19T10:09:39.537Z,0.90
2019-05-19T10:12:06.902Z,0.60
2019-05-19T10:14:34.413Z,0.70
2019-05-19T10:17:01.781Z,0.80
2019-05-19T10:19:29.101Z,0.80
2019-05-19T10:21:56.468Z,0.87
2019-05-19T10:24:23.768Z,0.90
2019-05-19T10:26:51.234Z,0.90
2019-05-19T10:29:18.693Z,1.00
2019-05-19T10:31:45.896Z,0.70
2019-05-19T10:34:13.314Z,0.77
2019-05-19T10:36:40.701Z,0.80
2019-05-19T10:39:07.912Z,0.70
2019-05-19T10:41:35.216Z,0.80
2019-05-19T10:44:02.650Z,0.80
2019-05-19T10:46:30.249Z,0.83
2019-05-19T10:49:00.233Z,0.90
2019-05-19T10:51:27.782Z,0.80
2019-05-19T10:53:55.297Z,0.70
2019-05-19T10:56:22.848Z,0.80
2019-05-19T10:58:50.293Z,0.87
2019-05-19T11:01:17.624Z,0.77
2019-05-19T11:03:44.950Z,0.63
2019-05-19T11:06:12.320Z,0.70
2019-05-19T11:08:39.658Z,0.80
2019-05-19T11:11:07.192Z,0.80
2019-05-19T11:13:34.500Z,0.70
2019-05-19T11:16:01.805Z,0.90
2019-05-19T11:18:29.417Z,0.87
2019-05-19T11:20:56.713Z,1.10
2019-05-19T11:23:24.036Z,0.90
2019-05-19T11:25:51.910Z,0.83
2019-05-19T11:28:20.048Z,0.60
2019-05-19T11:30:47.549Z,0.80
2019-05-19T11:33:14.889Z,0.73
2019-05-19T11:35:42.490Z,0.70
2019-05-19T11:38:09.829Z,0.90
2019-05-19T11:40:37.696Z,0.80
2019-05-19T11:43:05.013Z,0.80
2019-05-19T11:45:32.476Z,0.83
2019-05-19T11:48:00.046Z,0.97
2019-05-19T11:50:27.677Z,0.97
2019-05-19T11:52:55.117Z,0.77
2019-05-19T11:55:22.424Z,1.03
2019-05-19T11:57:49.900Z,1.10
2019-05-19T12:00:17.417Z,1.10
2019-05-19T12:02:44.993Z,1.00
2019-05-19T12:05:13.251Z,0.87
2019-05-19T12:07:40.864Z,0.77
2019-05-19T12:10:09.192Z,0.87
2019-05-19T12:12:36.630Z,0.70
2019-05-19T12:15:04.480Z,1.00
2019-05-19T12:17:31.864Z,0.80
2019-05-19T12:20:04.532Z,0.90
2019-05-19T12:22:34.395Z,1.00
2019-05-19T12:25:01.841Z,0.80
2019-05-19T12:27:29.741Z,0.80
2019-05-19T12:29:57.204Z,0.80
2019-05-19T12:32:25.027Z,0.80
2019-05-19T12:34:52.457Z,0.97
2019-05-19T12:37:20.039Z,0.73
2019-05-19T12:39:47.672Z,0.83
2019-05-19T12:42:15.061Z,0.87
2019-05-19T12:44:42.616Z,0.90
2019-05-19T12:47:11.220Z,0.90
2019-05-19T12:49:38.959Z,0.83
2019-05-19T12:52:06.841Z,0.93
2019-05-19T12:54:34.488Z,0.80
2019-05-19T12:57:01.951Z,0.97
2019-05-19T12:59:29.589Z,0.80
2019-05-19T13:01:56.929Z,0.73
2019-05-19T13:04:24.642Z,1.00
2019-05-19T13:06:52.341Z,0.73
2019-05-19T13:09:19.670Z,1.10
2019-05-19T13:11:47.460Z,0.70
2019-05-19T13:14:15.789Z,1.23
2019-05-19T13:16:43.169Z,0.90
2019-05-19T13:19:10.485Z,1.10
2019-05-19T13:21:38.460Z,1.00
2019-05-19T13:24:06.015Z,1.20
2019-05-19T13:26:33.654Z,0.90
2019-05-19T13:29:01.282Z,0.90
2019-05-19T13:31:28.728Z,0.90
2019-05-19T13:33:56.104Z,1.00
2019-05-19T13:36:23.731Z,1.10
2019-05-19T13:38:51.121Z,0.90
2019-05-19T13:41:18.633Z,1.07
2019-05-19T13:43:47.826Z,1.10
2019-05-19T13:46:15.597Z,1.30
2019-05-19T13:48:42.959Z,1.27
2019-05-19T13:51:10.665Z,1.20
2019-05-19T13:53:39.716Z,0.97
2019-05-19T13:56:07.483Z,0.90
2019-05-19T13:58:34.985Z,0.97
2019-05-19T14:01:02.772Z,1.00
2019-05-19T14:03:30.564Z,1.20
2019-05-19T14:05:57.952Z,0.97
2019-05-19T14:08:25.567Z,1.10
2019-05-19T14:10:53.165Z,0.90
2019-05-19T14:13:20.832Z,1.10
2019-05-19T14:15:48.502Z,1.00
2019-05-19T14:18:15.869Z,0.90
2019-05-19T14:20:43.662Z,0.70
2019-05-19T14:23:11.044Z,0.90
2019-05-19T14:25:39.229Z,1.33
2019-05-19T14:28:06.907Z,1.00
2019-05-19T14:30:34.464Z,1.00
2019-05-19T14:33:01.825Z,1.00
2019-05-19T14:35:30.244Z,1.30
2019-05-19T14:37:57.998Z,1.10
2019-05-19T14:40:25.573Z,1.10
2019-05-19T14:42:59.392Z,1.10
2019-05-19T14:45:26.776Z,1.20
2019-05-19T14:47:54.210Z,1.10
2019-05-19T14:50:21.522Z,1.13
2019-05-19T14:52:49.011Z,1.17
2019-05-19T14:55:16.180Z,1.10
2019-05-19T14:57:46.942Z,1.23
2019-05-19T15:00:14.792Z,1.13
2019-05-19T15:02:42.359Z,1.20
2019-05-19T15:05:09.735Z,1.10
2019-05-19T15:07:37.294Z,0.97
2019-05-19T15:10:05.176Z,1.23
2019-05-19T15:12:32.427Z,1.10
2019-05-19T15:15:00.037Z,1.17
2019-05-19T15:17:27.610Z,0.90
2019-05-19T15:19:55.206Z,1.40
2019-05-19T15:22:22.526Z,1.07
2019-05-19T15:24:49.969Z,1.20
2019-05-19T15:27:17.510Z,1.47
2019-05-19T15:29:44.846Z,1.10
2019-05-19T15:32:12.178Z,1.40
2019-05-19T15:34:39.894Z,1.30
2019-05-19T15:37:07.478Z,1.10
2019-05-19T15:39:35.852Z,0.90
2019-05-19T15:42:03.502Z,1.20
2019-05-19T15:44:30.869Z,1.27
2019-05-19T15:46:58.386Z,1.20
2019-05-19T15:52:06.022Z,1.40
2019-05-19T15:54:34.081Z,1.13
2019-05-19T15:57:01.403Z,1.10
2019-05-19T15:59:29.061Z,1.10
2019-05-19T16:01:56.592Z,1.17
2019-05-19T16:04:23.924Z,1.17
2019-05-19T16:06:51.706Z,1.73
2019-05-19T16:09:19.115Z,1.10
2019-05-19T16:11:47.037Z,1.57
2019-05-19T16:14:14.718Z,1.47
2019-05-19T16:16:42.273Z,1.50
2019-05-19T16:19:09.593Z,1.10
2019-05-19T16:21:38.508Z,1.00
2019-05-19T16:24:05.885Z,1.30
2019-05-19T16:26:33.446Z,1.37
2019-05-19T16:29:00.777Z,1.50
2019-05-19T16:31:28.192Z,1.40
2019-05-19T16:33:55.538Z,1.37
2019-05-19T16:36:22.952Z,1.40
2019-05-19T16:38:50.497Z,1.17
2019-05-19T16:41:18.017Z,1.30
2019-05-19T16:43:45.257Z,1.10
2019-05-19T16:46:14.006Z,1.10
2019-05-19T16:48:41.309Z,1.03
2019-05-19T16:51:09.615Z,1.20
2019-05-19T16:53:38.753Z,1.43
2019-05-19T16:56:06.280Z,1.13
2019-05-19T16:58:44.480Z,1.37
2019-05-19T17:01:02.887Z,1.00
2019-05-19T17:03:30.292Z,1.30
2019-05-19T17:05:57.564Z,1.40
2019-05-19T17:08:25.249Z,1.50
2019-05-19T17:10:52.709Z,1.47
2019-05-19T17:13:20.050Z,1.50
2019-05-19T17:15:47.524Z,1.33
2019-05-19T17:18:14.777Z,1.20
2019-05-19T17:20:42.089Z,1.30
2019-05-19T17:23:09.490Z,1.40
2019-05-19T17:25:36.793Z,1.30
2019-05-19T17:28:04.315Z,1.10
2019-05-19T17:30:31.515Z,1.57
2019-05-19T17:32:58.833Z,1.30
2019-05-19T17:35:26.381Z,1.40
2019-05-19T17:37:53.616Z,1.40
2019-05-19T17:40:20.962Z,1.27
2019-05-19T17:42:48.166Z,1.20
2019-05-19T17:45:15.526Z,1.10
2019-05-19T17:47:42.737Z,1.30
2019-05-19T17:50:10.018Z,1.30
2019-05-19T17:52:38.683Z,1.57
2019-05-19T17:55:07.595Z,1.37
2019-05-19T17:57:35.325Z,1.20
2019-05-19T18:00:03.069Z,1.13
2019-05-19T18:02:31.787Z,1.10
2019-05-19T18:04:59.187Z,1.40
2019-05-19T18:07:26.804Z,1.50
2019-05-19T18:09:54.341Z,1.50
2019-05-19T18:12:21.826Z,1.30
2019-05-19T18:14:49.144Z,1.20
2019-05-19T18:17:16.695Z,1.77
2019-05-19T18:19:44.003Z,1.60
2019-05-19T18:22:11.312Z,1.30
2019-05-19T18:24:39.153Z,1.40
2019-05-19T18:27:06.474Z,1.40
2019-05-19T18:29:33.901Z,1.23
2019-05-19T18:32:01.222Z,1.30
2019-05-19T18:34:32.270Z,1.03
2019-05-19T18:37:01.977Z,1.43
2019-05-19T18:39:29.451Z,1.40
2019-05-19T18:41:57.123Z,1.67
2019-05-19T18:44:24.669Z,1.27
2019-05-19T18:46:52.007Z,1.17
2019-05-19T18:49:20.313Z,1.50
2019-05-19T18:51:48.196Z,1.33
2019-05-19T18:54:15.946Z,1.00
2019-05-19T18:56:43.496Z,1.33
2019-05-19T18:59:10.863Z,1.13
2019-05-19T19:01:39.961Z,1.50
2019-05-19T19:04:07.202Z,1.37
2019-05-19T19:06:34.654Z,1.40
2019-05-19T19:09:02.156Z,1.50
2019-05-19T19:11:31.119Z,1.33
2019-05-19T19:13:58.329Z,1.20
2019-05-19T19:16:25.657Z,1.40
2019-05-19T19:18:53.205Z,1.30
2019-05-19T19:21:20.569Z,1.33
2019-05-19T19:23:48.017Z,1.10
2019-05-19T19:26:15.339Z,1.43
2019-05-19T19:28:42.689Z,1.30
2019-05-19T19:31:10.002Z,1.37
2019-05-19T19:33:37.341Z,1.20
2019-05-19T19:36:04.845Z,1.30
2019-05-19T19:38:32.237Z,1.07
2019-05-19T19:40:59.581Z,1.60
2019-05-19T19:43:26.968Z,1.00
2019-05-19T19:45:54.484Z,1.57
2019-05-19T19:48:22.170Z,1.30
2019-05-19T19:50:49.466Z,1.40
2019-05-19T19:53:16.673Z,1.30
2019-05-19T19:55:43.988Z,1.47
2019-05-19T19:58:11.306Z,1.40
2019-05-19T20:00:40.592Z,1.50
2019-05-19T20:03:07.903Z,1.00
2019-05-19T20:05:39.709Z,1.60
2019-05-19T20:08:07.082Z,1.27
2019-05-19T20:10:35.044Z,1.13
2019-05-19T20:13:02.353Z,1.43
2019-05-19T20:15:29.708Z,1.50
2019-05-19T20:17:57.061Z,1.20
2019-05-19T20:20:24.389Z,1.00
2019-05-19T20:22:51.860Z,1.30
2019-05-19T20:25:19.049Z,1.03
2019-05-19T20:27:46.498Z,1.03
2019-05-19T20:30:14.083Z,1.43
2019-05-19T20:32:41.560Z,1.30
2019-05-19T20:35:09.050Z,1.40
2019-05-19T20:37:36.409Z,1.23
2019-05-19T20:40:04.008Z,1.30
2019-05-19T20:42:31.838Z,1.67
2019-05-19T20:44:59.078Z,1.30
2019-05-19T20:47:26.646Z,1.13
2019-05-19T20:49:54.178Z,1.10
2019-05-19T20:52:21.713Z,1.30
2019-05-19T20:54:49.138Z,1.10
2019-05-19T20:57:16.614Z,1.20
2019-05-19T20:59:44.049Z,1.40
2019-05-19T21:02:11.623Z,1.40
2019-05-19T21:04:39.340Z,1.23
2019-05-19T21:07:07.934Z,1.37
2019-05-19T21:09:38.189Z,1.40
2019-05-19T21:12:07.207Z,1.40
2019-05-19T21:14:34.682Z,1.27
2019-05-19T21:17:02.383Z,1.37
2019-05-19T21:19:29.707Z,1.07
2019-05-19T21:21:57.022Z,1.13
2019-05-19T21:24:24.337Z,1.20
2019-05-19T21:26:54.187Z,1.53
2019-05-19T21:29:26.261Z,1.23
2019-05-19T21:31:55.833Z,1.17
2019-05-19T21:34:25.115Z,1.37
2019-05-19T21:36:55.239Z,1.20
2019-05-19T21:39:24.706Z,0.93
2019-05-19T21:41:52.178Z,1.10
2019-05-19T21:44:19.585Z,1.20
2019-05-19T21:46:46.786Z,1.40
2019-05-19T21:49:14.160Z,0.97
2019-05-19T21:51:42.049Z,1.10
2019-05-19T21:54:09.973Z,1.30
2019-05-19T21:56:37.364Z,1.60
2019-05-19T21:59:04.953Z,1.50
2019-05-19T22:01:32.197Z,1.30
2019-05-19T22:04:00.796Z,1.30
2019-05-19T22:06:30.032Z,1.20
2019-05-19T22:08:57.573Z,1.13
2019-05-19T22:11:24.888Z,1.40
2019-05-19T22:13:52.222Z,1.50
2019-05-19T22:16:19.535Z,1.10
2019-05-19T22:18:47.084Z,1.40
2019-05-19T22:21:14.460Z,0.90
2019-05-19T22:23:41.907Z,0.97
2019-05-19T22:26:10.234Z,1.00
2019-05-19T22:28:38.212Z,1.20
2019-05-19T22:31:06.309Z,1.43
2019-05-19T22:33:33.645Z,1.27
2019-05-19T22:36:01.198Z,1.30
2019-05-19T22:38:29.443Z,1.40
2019-05-19T22:40:56.856Z,1.30
2019-05-19T22:43:24.451Z,1.17
2019-05-19T22:45:51.757Z,1.30
2019-05-19T22:48:19.086Z,1.47
2019-05-19T22:50:47.412Z,1.27
2019-05-19T22:53:14.725Z,1.40
2019-05-19T22:55:42.683Z,1.13
2019-05-19T22:58:10.561Z,1.50
2019-05-19T23:00:38.673Z,1.07
2019-05-19T23:03:09.482Z,1.20
2019-05-19T23:05:38.078Z,1.10
2019-05-19T23:08:07.273Z,1.20
2019-05-19T23:10:36.453Z,1.20
2019-05-19T23:13:08.280Z,1.20
2019-05-19T23:15:35.666Z,0.90
2019-05-19T23:18:04.760Z,1.27
2019-05-19T23:20:32.696Z,1.17
2019-05-19T23:23:06.016Z,1.13
2019-05-19T23:25:33.455Z,1.03
2019-05-19T23:28:05.813Z,1.17
2019-05-19T23:30:33.362Z,1.00
2019-05-19T23:33:01.155Z,1.57
2019-05-19T23:35:29.374Z,0.90
2019-05-19T23:37:57.122Z,0.97
2019-05-19T23:40:27.087Z,1.33
2019-05-19T23:42:57.520Z,1.10
2019-05-19T23:45:25.295Z,1.30
2019-05-19T23:47:53.404Z,0.90
2019-05-19T23:50:20.898Z,1.20
2019-05-19T23:52:48.521Z,1.10
2019-05-19T23:55:16.157Z,1.30
2019-05-19T23:57:44.814Z,0.97
